Current Weather

Lagrange-Callaway Airport

Lagrange-Callaway Airport, Georgia (KLGC)

Report from: Monday, May 23, 2022 4:30 AM EDT
Current time: Monday, May 23, 2022 4:57 AM EDT

Nearby weather
Weather history
Weather forecast

Present weatherRain
Temperature19.6°C (67.3°F)
Dew point18.1°C (64.6°F)
Winds Calm
Visibility7 mi. (11.3 km)
Clouds Ceiling: Broken clouds 3,800 ft. (1,158 m)
Broken clouds 4,700 ft. (1,433 m)
Overcast 6,000 ft. (1,829 m)
Altimeter30.06 in.Hg (1018 mB)
Relative humidity91 %
Density altitude664 ft. (202 m)
Remarks Fully automated report
Automated weather observing station with precipitation discriminator
Lightning observed
Distant southwest and west
Flight conditions Visual Meteorological Conditions
Raw dataKLGC 230830Z AUTO 00000KT 7SM RA BKN038 BKN047 OVC060 20/18 A3006 RMK AO2 LTG DSNT SW AND W T01960181
An error has occurred. This application may no longer respond until reloaded. Reload 🗙